Terminal Aerodrome Forecast
Issued by NWS

Home | Current Version | Previous Version | Text Only | Print | Product List | Glossary On
Versions: 1 2 3 4 5 6 7 8 9 10 11 12 13 14 15 16 17 18
000
FTUS43 KBIS 270528
TAFDIK
TAF
KDIK 270528Z 2706/2806 22007KT P6SM VCTS BKN090CB OVC110
      TEMPO 2706/2708 TSRA BKN050 OVC090CB
     FM270800 19006KT P6SM VCTS BKN070CB
     FM271100 22007KT P6SM SCT070
     FM271800 24012KT P6SM SKC
     FM280300 16007KT P6SM SCT250=

USA.gov is the U.S. government's official web portal to all federal, state and local government web resources and services.